sensor_id;sensor_type;location;lat;lon;timestamp;pressure;altitude;pressure_sealevel;temperature;humidity
82512;BME280;72152;65.012;25.464;2024-03-25T00:00:53;100165.58;;;-3.78;57.04
82512;BME280;72152;65.012;25.464;2024-03-25T00:03:59;100167.78;;;-3.83;57.05
82512;BME280;72152;65.012;25.464;2024-03-25T00:07:06;100167.73;;;-3.83;57.37
82512;BME280;72152;65.012;25.464;2024-03-25T00:10:04;100165.46;;;-3.84;57.31
82512;BME280;72152;65.012;25.464;2024-03-25T00:13:10;100167.17;;;-3.85;57.26
82512;BME280;72152;65.012;25.464;2024-03-25T00:16:24;100167.16;;;-3.81;57.25
82512;BME280;72152;65.012;25.464;2024-03-25T00:19:30;100175.30;;;-3.79;57.42
82512;BME280;72152;65.012;25.464;2024-03-25T00:22:34;100175.00;;;-3.82;57.17
82512;BME280;72152;65.012;25.464;2024-03-25T00:25:35;100179.48;;;-3.86;57.21
82512;BME280;72152;65.012;25.464;2024-03-25T00:28:41;100178.55;;;-3.88;57.34
82512;BME280;72152;65.012;25.464;2024-03-25T00:31:51;100179.05;;;-3.88;57.36
82512;BME280;72152;65.012;25.464;2024-03-25T00:34:57;100178.45;;;-3.86;57.40
82512;BME280;72152;65.012;25.464;2024-03-25T00:38:07;100180.58;;;-3.84;57.37
82512;BME280;72152;65.012;25.464;2024-03-25T00:41:05;100177.73;;;-3.83;57.35
82512;BME280;72152;65.012;25.464;2024-03-25T00:44:11;100181.84;;;-3.83;57.42
82512;BME280;72152;65.012;25.464;2024-03-25T00:47:13;100184.45;;;-3.83;57.34
82512;BME280;72152;65.012;25.464;2024-03-25T00:50:27;100187.34;;;-3.83;57.19
82512;BME280;72152;65.012;25.464;2024-03-25T00:53:33;100185.07;;;-3.84;57.09
82512;BME280;72152;65.012;25.464;2024-03-25T00:56:39;100183.96;;;-3.86;57.16
82512;BME280;72152;65.012;25.464;2024-03-25T00:59:46;100186.09;;;-3.84;57.27
82512;BME280;72152;65.012;25.464;2024-03-25T01:02:52;100179.23;;;-3.84;57.32
82512;BME280;72152;65.012;25.464;2024-03-25T01:05:55;100181.52;;;-3.83;57.16
82512;BME280;72152;65.012;25.464;2024-03-25T01:09:03;100181.73;;;-3.82;57.02
82512;BME280;72152;65.012;25.464;2024-03-25T01:12:17;100184.44;;;-3.83;57.19
82512;BME280;72152;65.012;25.464;2024-03-25T01:15:24;100180.63;;;-3.80;57.18
82512;BME280;72152;65.012;25.464;2024-03-25T01:18:33;100178.08;;;-3.79;57.16
82512;BME280;72152;65.012;25.464;2024-03-25T01:21:41;100177.76;;;-3.78;57.12
82512;BME280;72152;65.012;25.464;2024-03-25T01:24:48;100185.59;;;-3.84;56.93
82512;BME280;72152;65.012;25.464;2024-03-25T01:27:54;100181.48;;;-3.87;57.27
82512;BME280;72152;65.012;25.464;2024-03-25T01:30:57;100182.52;;;-3.90;57.07
82512;BME280;72152;65.012;25.464;2024-03-25T01:34:05;100182.34;;;-3.99;57.18
82512;BME280;72152;65.012;25.464;2024-03-25T01:37:11;100182.08;;;-4.05;57.44
82512;BME280;72152;65.012;25.464;2024-03-25T01:40:24;100181.97;;;-4.07;57.33
82512;BME280;72152;65.012;25.464;2024-03-25T01:43:31;100181.05;;;-4.08;57.43
82512;BME280;72152;65.012;25.464;2024-03-25T01:46:35;100180.83;;;-4.09;57.37
82512;BME280;72152;65.012;25.464;2024-03-25T01:49:50;100180.06;;;-4.11;57.58
82512;BME280;72152;65.012;25.464;2024-03-25T01:52:52;100177.35;;;-4.10;57.56
82512;BME280;72152;65.012;25.464;2024-03-25T01:56:00;100182.83;;;-4.10;57.60
82512;BME280;72152;65.012;25.464;2024-03-25T01:59:04;100187.15;;;-4.10;57.41
82512;BME280;72152;65.012;25.464;2024-03-25T02:02:08;100181.38;;;-4.12;57.29
82512;BME280;72152;65.012;25.464;2024-03-25T02:05:16;100183.55;;;-4.13;57.45
82512;BME280;72152;65.012;25.464;2024-03-25T02:08:22;100183.50;;;-4.11;57.47
82512;BME280;72152;65.012;25.464;2024-03-25T02:11:26;100183.50;;;-4.07;57.49
82512;BME280;72152;65.012;25.464;2024-03-25T02:14:33;100187.13;;;-4.10;57.47
82512;BME280;72152;65.012;25.464;2024-03-25T02:17:38;100186.83;;;-4.13;57.58
82512;BME280;72152;65.012;25.464;2024-03-25T02:20:40;100184.68;;;-4.15;57.72
82512;BME280;72152;65.012;25.464;2024-03-25T02:23:42;100184.36;;;-4.14;57.83
82512;BME280;72152;65.012;25.464;2024-03-25T02:26:49;100182.38;;;-4.16;57.53
82512;BME280;72152;65.012;25.464;2024-03-25T02:29:59;100183.69;;;-4.18;57.72
82512;BME280;72152;65.012;25.464;2024-03-25T02:33:00;100185.98;;;-4.20;57.57
82512;BME280;72152;65.012;25.464;2024-03-25T02:36:10;100182.86;;;-4.28;57.52
82512;BME280;72152;65.012;25.464;2024-03-25T02:39:15;100190.39;;;-4.32;57.70
82512;BME280;72152;65.012;25.464;2024-03-25T02:42:23;100193.33;;;-4.42;57.58
82512;BME280;72152;65.012;25.464;2024-03-25T02:45:31;100198.55;;;-4.52;57.56
82512;BME280;72152;65.012;25.464;2024-03-25T02:48:30;100197.70;;;-4.63;57.80
82512;BME280;72152;65.012;25.464;2024-03-25T02:51:29;100200.23;;;-4.71;58.10
82512;BME280;72152;65.012;25.464;2024-03-25T02:54:31;100202.08;;;-4.75;58.31
82512;BME280;72152;65.012;25.464;2024-03-25T02:57:35;100199.77;;;-4.77;58.06
82512;BME280;72152;65.012;25.464;2024-03-25T03:00:37;100203.41;;;-4.80;58.14
82512;BME280;72152;65.012;25.464;2024-03-25T03:03:45;100206.85;;;-4.79;58.36
82512;BME280;72152;65.012;25.464;2024-03-25T03:06:54;100209.92;;;-4.76;58.32
82512;BME280;72152;65.012;25.464;2024-03-25T03:10:05;100211.00;;;-4.72;58.51
82512;BME280;72152;65.012;25.464;2024-03-25T03:13:28;100217.01;;;-4.68;58.48
82512;BME280;72152;65.012;25.464;2024-03-25T03:16:37;100212.48;;;-4.69;58.45
82512;BME280;72152;65.012;25.464;2024-03-25T03:19:43;100217.98;;;-4.69;58.54
82512;BME280;72152;65.012;25.464;2024-03-25T03:22:49;100221.35;;;-4.67;58.67
82512;BME280;72152;65.012;25.464;2024-03-25T03:25:54;100223.70;;;-4.64;58.64
82512;BME280;72152;65.012;25.464;2024-03-25T03:29:01;100228.78;;;-4.62;58.50
82512;BME280;72152;65.012;25.464;2024-03-25T03:32:16;100228.20;;;-4.63;58.50
82512;BME280;72152;65.012;25.464;2024-03-25T03:35:26;100229.23;;;-4.60;58.51
82512;BME280;72152;65.012;25.464;2024-03-25T03:38:34;100235.65;;;-4.58;58.35
82512;BME280;72152;65.012;25.464;2024-03-25T03:41:42;100237.21;;;-4.65;58.46
82512;BME280;72152;65.012;25.464;2024-03-25T03:44:49;100236.98;;;-4.70;58.53
82512;BME280;72152;65.012;25.464;2024-03-25T03:47:59;100241.52;;;-4.72;58.33
82512;BME280;72152;65.012;25.464;2024-03-25T03:51:05;100241.91;;;-4.78;58.55
82512;BME280;72152;65.012;25.464;2024-03-25T03:54:14;100247.23;;;-4.85;58.57
82512;BME280;72152;65.012;25.464;2024-03-25T03:57:26;100251.39;;;-4.94;58.54
82512;BME280;72152;65.012;25.464;2024-03-25T04:00:32;100252.07;;;-5.01;58.73
82512;BME280;72152;65.012;25.464;2024-03-25T04:03:42;100253.10;;;-5.08;58.82
82512;BME280;72152;65.012;25.464;2024-03-25T04:06:45;100255.67;;;-5.11;58.99
82512;BME280;72152;65.012;25.464;2024-03-25T04:09:51;100252.41;;;-5.14;59.08
82512;BME280;72152;65.012;25.464;2024-03-25T04:12:48;100250.82;;;-5.19;58.94
82512;BME280;72152;65.012;25.464;2024-03-25T04:16:01;100254.02;;;-5.26;59.18
82512;BME280;72152;65.012;25.464;2024-03-25T04:19:03;100253.94;;;-5.31;59.16
82512;BME280;72152;65.012;25.464;2024-03-25T04:22:11;100258.09;;;-5.34;59.13
82512;BME280;72152;65.012;25.464;2024-03-25T04:25:20;100256.73;;;-5.30;59.25
82512;BME280;72152;65.012;25.464;2024-03-25T04:28:27;100258.73;;;-5.28;59.18
82512;BME280;72152;65.012;25.464;2024-03-25T04:31:36;100259.17;;;-5.30;59.34
82512;BME280;72152;65.012;25.464;2024-03-25T04:34:36;100263.54;;;-5.28;59.10
82512;BME280;72152;65.012;25.464;2024-03-25T04:37:50;100267.56;;;-5.27;59.13
82512;BME280;72152;65.012;25.464;2024-03-25T04:40:54;100267.85;;;-5.28;59.20
82512;BME280;72152;65.012;25.464;2024-03-25T04:44:04;100267.80;;;-5.28;59.27
82512;BME280;72152;65.012;25.464;2024-03-25T04:47:15;100264.16;;;-5.26;59.36
82512;BME280;72152;65.012;25.464;2024-03-25T04:50:24;100263.02;;;-5.21;59.04
82512;BME280;72152;65.012;25.464;2024-03-25T04:53:32;100263.70;;;-5.25;58.88
82512;BME280;72152;65.012;25.464;2024-03-25T04:56:34;100267.02;;;-5.24;58.85
82512;BME280;72152;65.012;25.464;2024-03-25T04:59:42;100269.94;;;-5.20;58.86
82512;BME280;72152;65.012;25.464;2024-03-25T05:02:56;100272.55;;;-5.17;58.76
82512;BME280;72152;65.012;25.464;2024-03-25T05:06:08;100275.23;;;-5.21;58.65
82512;BME280;72152;65.012;25.464;2024-03-25T05:09:20;100275.80;;;-5.17;58.84
82512;BME280;72152;65.012;25.464;2024-03-25T05:12:23;100276.02;;;-5.09;58.79
82512;BME280;72152;65.012;25.464;2024-03-25T05:15:40;100274.84;;;-5.05;58.64
82512;BME280;72152;65.012;25.464;2024-03-25T05:18:48;100279.19;;;-5.01;58.42
82512;BME280;72152;65.012;25.464;2024-03-25T05:21:53;100282.45;;;-5.01;58.51
82512;BME280;72152;65.012;25.464;2024-03-25T05:25:00;100280.80;;;-4.99;58.57
82512;BME280;72152;65.012;25.464;2024-03-25T05:28:06;100287.52;;;-4.92;58.55
82512;BME280;72152;65.012;25.464;2024-03-25T05:31:18;100289.25;;;-4.89;58.27
82512;BME280;72152;65.012;25.464;2024-03-25T05:34:26;100287.27;;;-4.84;58.28
82512;BME280;72152;65.012;25.464;2024-03-25T05:37:33;100292.04;;;-4.77;58.21
82512;BME280;72152;65.012;25.464;2024-03-25T05:40:35;100291.52;;;-4.78;57.86
82512;BME280;72152;65.012;25.464;2024-03-25T05:43:43;100291.64;;;-4.86;57.83
82512;BME280;72152;65.012;25.464;2024-03-25T05:46:48;100288.16;;;-4.93;57.97
82512;BME280;72152;65.012;25.464;2024-03-25T05:49:57;100290.13;;;-5.02;57.93
82512;BME280;72152;65.012;25.464;2024-03-25T05:53:03;100289.27;;;-5.05;58.33
82512;BME280;72152;65.012;25.464;2024-03-25T05:56:07;100292.17;;;-4.95;58.39
82512;BME280;72152;65.012;25.464;2024-03-25T05:58:58;100292.83;;;-4.89;58.24
82512;BME280;72152;65.012;25.464;2024-03-25T06:02:09;100294.41;;;-4.85;58.13
82512;BME280;72152;65.012;25.464;2024-03-25T06:05:11;100292.99;;;-4.79;58.17
82512;BME280;72152;65.012;25.464;2024-03-25T06:08:22;100295.13;;;-4.64;58.26
82512;BME280;72152;65.012;25.464;2024-03-25T06:11:25;100298.80;;;-4.55;57.86
82512;BME280;72152;65.012;25.464;2024-03-25T06:14:36;100294.01;;;-4.48;57.69
82512;BME280;72152;65.012;25.464;2024-03-25T06:17:47;100295.30;;;-4.46;57.12
82512;BME280;72152;65.012;25.464;2024-03-25T06:20:52;100299.05;;;-4.47;57.21
82512;BME280;72152;65.012;25.464;2024-03-25T06:23:58;100293.85;;;-4.44;57.05
82512;BME280;72152;65.012;25.464;2024-03-25T06:26:59;100294.67;;;-4.35;57.16
82512;BME280;72152;65.012;25.464;2024-03-25T06:30:08;100297.75;;;-4.31;56.80
82512;BME280;72152;65.012;25.464;2024-03-25T06:33:28;100299.79;;;-4.21;56.80
82512;BME280;72152;65.012;25.464;2024-03-25T06:36:48;100297.66;;;-4.12;56.81
82512;BME280;72152;65.012;25.464;2024-03-25T06:39:52;100296.39;;;-3.95;56.74
82512;BME280;72152;65.012;25.464;2024-03-25T06:43:03;100294.66;;;-3.85;56.36
82512;BME280;72152;65.012;25.464;2024-03-25T06:46:14;100298.25;;;-3.85;55.71
82512;BME280;72152;65.012;25.464;2024-03-25T06:49:17;100300.33;;;-3.89;55.77
82512;BME280;72152;65.012;25.464;2024-03-25T06:52:20;100301.83;;;-3.83;55.90
82512;BME280;72152;65.012;25.464;2024-03-25T06:55:25;100295.64;;;-3.68;55.88
82512;BME280;72152;65.012;25.464;2024-03-25T06:58:27;100298.52;;;-3.58;55.35
82512;BME280;72152;65.012;25.464;2024-03-25T07:01:38;100299.66;;;-3.52;55.22
82512;BME280;72152;65.012;25.464;2024-03-25T07:04:44;100302.92;;;-3.45;55.06
82512;BME280;72152;65.012;25.464;2024-03-25T07:07:47;100306.30;;;-3.38;54.71
82512;BME280;72152;65.012;25.464;2024-03-25T07:10:56;100304.74;;;-3.31;54.71
82512;BME280;72152;65.012;25.464;2024-03-25T07:14:07;100311.52;;;-3.18;54.62
82512;BME280;72152;65.012;25.464;2024-03-25T07:17:15;100313.23;;;-3.03;54.62
82512;BME280;72152;65.012;25.464;2024-03-25T07:20:27;100313.41;;;-2.86;54.18
82512;BME280;72152;65.012;25.464;2024-03-25T07:23:30;100315.69;;;-2.69;53.98
82512;BME280;72152;65.012;25.464;2024-03-25T07:26:30;100312.16;;;-2.48;53.72
82512;BME280;72152;65.012;25.464;2024-03-25T07:29:42;100309.98;;;-2.29;53.52
82512;BME280;72152;65.012;25.464;2024-03-25T07:32:48;100315.09;;;-2.10;52.71
82512;BME280;72152;65.012;25.464;2024-03-25T07:35:54;100313.70;;;-1.98;52.47
82512;BME280;72152;65.012;25.464;2024-03-25T07:39:00;100312.46;;;-1.81;51.92
82512;BME280;72152;65.012;25.464;2024-03-25T07:42:05;100310.50;;;-1.70;52.00
82512;BME280;72152;65.012;25.464;2024-03-25T07:45:07;100309.48;;;-1.65;50.83
82512;BME280;72152;65.012;25.464;2024-03-25T07:48:14;100310.21;;;-1.59;51.21
82512;BME280;72152;65.012;25.464;2024-03-25T07:51:21;100313.84;;;-1.40;51.37
82512;BME280;72152;65.012;25.464;2024-03-25T07:54:19;100313.75;;;-1.24;51.17
82512;BME280;72152;65.012;25.464;2024-03-25T07:57:25;100309.05;;;-1.07;51.15
82512;BME280;72152;65.012;25.464;2024-03-25T08:00:35;100313.36;;;-0.83;50.98
82512;BME280;72152;65.012;25.464;2024-03-25T08:03:34;100311.15;;;-0.68;50.46
82512;BME280;72152;65.012;25.464;2024-03-25T08:06:40;100309.98;;;-0.52;50.38
82512;BME280;72152;65.012;25.464;2024-03-25T08:09:54;100314.75;;;-0.39;49.65
82512;BME280;72152;65.012;25.464;2024-03-25T08:13:02;100313.73;;;-0.53;48.79
82512;BME280;72152;65.012;25.464;2024-03-25T08:16:07;100308.28;;;-0.55;49.00
82512;BME280;72152;65.012;25.464;2024-03-25T08:19:12;100315.64;;;-0.53;48.97
82512;BME280;72152;65.012;25.464;2024-03-25T08:22:16;100315.91;;;-0.50;48.73
82512;BME280;72152;65.012;25.464;2024-03-25T08:25:27;100313.13;;;-0.61;48.51
82512;BME280;72152;65.012;25.464;2024-03-25T08:28:30;100316.28;;;-0.54;48.53
82512;BME280;72152;65.012;25.464;2024-03-25T08:31:34;100317.23;;;-0.46;48.20
82512;BME280;72152;65.012;25.464;2024-03-25T08:34:39;100311.77;;;-0.45;48.16
82512;BME280;72152;65.012;25.464;2024-03-25T08:37:38;100311.58;;;-0.46;48.32
82512;BME280;72152;65.012;25.464;2024-03-25T08:40:41;100316.09;;;-0.40;48.10
82512;BME280;72152;65.012;25.464;2024-03-25T08:43:42;100312.92;;;-0.47;47.91
82512;BME280;72152;65.012;25.464;2024-03-25T08:46:52;100315.57;;;-0.50;48.06
82512;BME280;72152;65.012;25.464;2024-03-25T08:49:58;100317.32;;;-0.45;47.90
82512;BME280;72152;65.012;25.464;2024-03-25T08:52:57;100323.94;;;-0.43;47.43
82512;BME280;72152;65.012;25.464;2024-03-25T08:56:08;100321.78;;;-0.50;47.74
82512;BME280;72152;65.012;25.464;2024-03-25T08:59:24;100322.36;;;-0.48;47.45
82512;BME280;72152;65.012;25.464;2024-03-25T09:02:32;100320.17;;;-0.42;47.62
82512;BME280;72152;65.012;25.464;2024-03-25T09:05:35;100322.41;;;-0.32;47.05
82512;BME280;72152;65.012;25.464;2024-03-25T09:08:46;100321.52;;;-0.42;46.60
82512;BME280;72152;65.012;25.464;2024-03-25T09:12:02;100332.31;;;-0.51;46.76
82512;BME280;72152;65.012;25.464;2024-03-25T09:15:06;100330.51;;;-0.58;46.55
82512;BME280;72152;65.012;25.464;2024-03-25T09:18:10;100330.92;;;-0.61;46.82
82512;BME280;72152;65.012;25.464;2024-03-25T09:21:16;100330.73;;;-0.56;46.77
82512;BME280;72152;65.012;25.464;2024-03-25T09:24:27;100326.80;;;-0.50;46.65
82512;BME280;72152;65.012;25.464;2024-03-25T09:27:37;100324.71;;;-0.55;46.66
82512;BME280;72152;65.012;25.464;2024-03-25T09:30:42;100325.14;;;-0.53;46.52
82512;BME280;72152;65.012;25.464;2024-03-25T09:33:47;100332.09;;;-0.52;46.44
82512;BME280;72152;65.012;25.464;2024-03-25T09:36:48;100332.02;;;-0.49;46.69
82512;BME280;72152;65.012;25.464;2024-03-25T09:39:53;100334.77;;;-0.44;46.33
82512;BME280;72152;65.012;25.464;2024-03-25T09:43:02;100332.59;;;-0.42;46.52
82512;BME280;72152;65.012;25.464;2024-03-25T09:46:09;100332.95;;;-0.38;46.82
82512;BME280;72152;65.012;25.464;2024-03-25T09:49:16;100329.41;;;-0.39;46.05
82512;BME280;72152;65.012;25.464;2024-03-25T09:52:20;100336.08;;;-0.47;46.26
82512;BME280;72152;65.012;25.464;2024-03-25T09:55:18;100330.68;;;-0.43;46.60
82512;BME280;72152;65.012;25.464;2024-03-25T09:58:22;100333.65;;;-0.32;46.53
82512;BME280;72152;65.012;25.464;2024-03-25T10:01:28;100333.73;;;-0.24;46.35
82512;BME280;72152;65.012;25.464;2024-03-25T10:07:50;100333.21;;;-0.14;46.45
82512;BME280;72152;65.012;25.464;2024-03-25T10:10:56;100329.77;;;0.02;46.44
82512;BME280;72152;65.012;25.464;2024-03-25T10:14:06;100328.48;;;0.16;46.05
82512;BME280;72152;65.012;25.464;2024-03-25T10:17:10;100330.34;;;0.20;45.80
82512;BME280;72152;65.012;25.464;2024-03-25T10:20:20;100332.11;;;0.21;45.66
82512;BME280;72152;65.012;25.464;2024-03-25T10:23:33;100334.48;;;0.20;45.42
82512;BME280;72152;65.012;25.464;2024-03-25T10:26:39;100337.52;;;0.12;44.98
82512;BME280;72152;65.012;25.464;2024-03-25T10:29:44;100339.35;;;0.04;45.40
82512;BME280;72152;65.012;25.464;2024-03-25T10:32:43;100338.80;;;0.09;45.48
82512;BME280;72152;65.012;25.464;2024-03-25T10:35:51;100337.30;;;0.05;45.32
82512;BME280;72152;65.012;25.464;2024-03-25T10:38:56;100340.88;;;0.03;45.60
82512;BME280;72152;65.012;25.464;2024-03-25T10:45:15;100336.09;;;0.21;45.70
82512;BME280;72152;65.012;25.464;2024-03-25T10:48:21;100330.55;;;0.38;45.51
82512;BME280;72152;65.012;25.464;2024-03-25T10:51:34;100335.69;;;0.47;44.76
82512;BME280;72152;65.012;25.464;2024-03-25T10:54:42;100334.25;;;0.34;44.50
82512;BME280;72152;65.012;25.464;2024-03-25T10:57:51;100328.84;;;0.27;45.05
82512;BME280;72152;65.012;25.464;2024-03-25T11:01:00;100333.39;;;0.40;45.58
82512;BME280;72152;65.012;25.464;2024-03-25T11:03:59;100334.70;;;0.55;45.05
82512;BME280;72152;65.012;25.464;2024-03-25T11:07:13;100333.66;;;0.60;45.25
82512;BME280;72152;65.012;25.464;2024-03-25T11:13:26;100336.95;;;0.66;44.65
82512;BME280;72152;65.012;25.464;2024-03-25T11:16:40;100342.99;;;0.71;44.79
82512;BME280;72152;65.012;25.464;2024-03-25T11:19:47;100342.67;;;0.77;44.98
82512;BME280;72152;65.012;25.464;2024-03-25T11:23:07;100340.14;;;0.80;44.80
82512;BME280;72152;65.012;25.464;2024-03-25T11:29:35;100345.20;;;0.99;44.23
82512;BME280;72152;65.012;25.464;2024-03-25T11:36:06;100345.88;;;0.86;45.31
82512;BME280;72152;65.012;25.464;2024-03-25T11:39:12;100344.04;;;0.77;46.37
82512;BME280;72152;65.012;25.464;2024-03-25T11:42:26;100342.09;;;0.70;47.44
82512;BME280;72152;65.012;25.464;2024-03-25T11:45:46;100341.48;;;0.78;47.60
82512;BME280;72152;65.012;25.464;2024-03-25T11:48:54;100340.89;;;0.88;46.58
82512;BME280;72152;65.012;25.464;2024-03-25T11:52:06;100343.83;;;0.88;47.30
82512;BME280;72152;65.012;25.464;2024-03-25T11:55:08;100347.96;;;0.75;47.90
82512;BME280;72152;65.012;25.464;2024-03-25T11:58:11;100348.88;;;0.49;48.50
82512;BME280;72152;65.012;25.464;2024-03-25T12:01:23;100355.43;;;0.31;49.26
82512;BME280;72152;65.012;25.464;2024-03-25T12:04:41;100357.83;;;0.19;49.57
82512;BME280;72152;65.012;25.464;2024-03-25T12:07:55;100356.61;;;0.09;50.04
82512;BME280;72152;65.012;25.464;2024-03-25T12:11:01;100363.55;;;0.04;50.07
82512;BME280;72152;65.012;25.464;2024-03-25T12:14:30;100366.23;;;-0.04;50.45
82512;BME280;72152;65.012;25.464;2024-03-25T12:17:36;100365.18;;;-0.10;50.74
82512;BME280;72152;65.012;25.464;2024-03-25T12:20:34;100370.75;;;-0.13;51.18
82512;BME280;72152;65.012;25.464;2024-03-25T12:23:44;100371.94;;;-0.14;51.20
82512;BME280;72152;65.012;25.464;2024-03-25T12:26:57;100372.25;;;-0.20;51.38
82512;BME280;72152;65.012;25.464;2024-03-25T12:30:08;100372.21;;;-0.21;51.63
82512;BME280;72152;65.012;25.464;2024-03-25T12:33:15;100379.91;;;-0.24;51.76
82512;BME280;72152;65.012;25.464;2024-03-25T12:36:27;100381.15;;;-0.28;51.84
82512;BME280;72152;65.012;25.464;2024-03-25T12:39:37;100384.11;;;-0.32;51.53
82512;BME280;72152;65.012;25.464;2024-03-25T12:42:58;100379.91;;;-0.38;51.91
82512;BME280;72152;65.012;25.464;2024-03-25T12:46:03;100377.16;;;-0.43;52.04
82512;BME280;72152;65.012;25.464;2024-03-25T12:49:10;100378.91;;;-0.37;52.16
82512;BME280;72152;65.012;25.464;2024-03-25T12:52:16;100376.21;;;-0.31;51.90
82512;BME280;72152;65.012;25.464;2024-03-25T12:55:25;100379.15;;;-0.41;51.91
82512;BME280;72152;65.012;25.464;2024-03-25T12:58:31;100379.08;;;-0.43;52.26
82512;BME280;72152;65.012;25.464;2024-03-25T13:01:36;100383.04;;;-0.43;52.44
82512;BME280;72152;65.012;25.464;2024-03-25T13:04:44;100384.07;;;-0.39;52.77
82512;BME280;72152;65.012;25.464;2024-03-25T13:08:05;100388.04;;;-0.33;52.67
82512;BME280;72152;65.012;25.464;2024-03-25T13:11:11;100389.67;;;-0.36;52.54
82512;BME280;72152;65.012;25.464;2024-03-25T13:14:14;100393.21;;;-0.53;52.76
82512;BME280;72152;65.012;25.464;2024-03-25T13:17:17;100393.59;;;-0.62;52.96
82512;BME280;72152;65.012;25.464;2024-03-25T13:20:29;100393.46;;;-0.75;52.72
82512;BME280;72152;65.012;25.464;2024-03-25T13:23:35;100389.52;;;-0.88;53.32
82512;BME280;72152;65.012;25.464;2024-03-25T13:26:43;100391.39;;;-0.98;53.66
82512;BME280;72152;65.012;25.464;2024-03-25T13:30:02;100394.05;;;-1.01;54.00
82512;BME280;72152;65.012;25.464;2024-03-25T13:33:15;100394.67;;;-1.03;54.21
82512;BME280;72152;65.012;25.464;2024-03-25T13:36:43;100401.80;;;-1.20;54.13
82512;BME280;72152;65.012;25.464;2024-03-25T13:39:52;100405.30;;;-1.27;54.44
82512;BME280;72152;65.012;25.464;2024-03-25T13:42:58;100403.42;;;-1.26;54.58
82512;BME280;72152;65.012;25.464;2024-03-25T13:46:24;100407.46;;;-1.20;54.68
82512;BME280;72152;65.012;25.464;2024-03-25T13:49:31;100406.30;;;-1.24;54.78
82512;BME280;72152;65.012;25.464;2024-03-25T13:52:32;100404.99;;;-1.22;55.05
82512;BME280;72152;65.012;25.464;2024-03-25T13:55:43;100405.23;;;-1.16;54.84
82512;BME280;72152;65.012;25.464;2024-03-25T13:58:52;100408.85;;;-1.07;55.09
82512;BME280;72152;65.012;25.464;2024-03-25T14:02:01;100411.33;;;-0.96;54.89
82512;BME280;72152;65.012;25.464;2024-03-25T14:05:15;100412.86;;;-0.83;54.80
82512;BME280;72152;65.012;25.464;2024-03-25T14:08:27;100413.92;;;-0.73;54.63
82512;BME280;72152;65.012;25.464;2024-03-25T14:11:39;100415.45;;;-0.69;54.47
82512;BME280;72152;65.012;25.464;2024-03-25T14:14:55;100417.28;;;-0.57;54.39
82512;BME280;72152;65.012;25.464;2024-03-25T14:18:06;100417.04;;;-0.49;54.35
82512;BME280;72152;65.012;25.464;2024-03-25T14:21:12;100419.76;;;-0.46;54.16
82512;BME280;72152;65.012;25.464;2024-03-25T14:24:32;100420.89;;;-0.43;54.40
82512;BME280;72152;65.012;25.464;2024-03-25T14:27:38;100419.49;;;-0.33;54.22
82512;BME280;72152;65.012;25.464;2024-03-25T14:30:46;100419.15;;;-0.34;54.28
82512;BME280;72152;65.012;25.464;2024-03-25T14:33:55;100418.48;;;-0.38;54.38
82512;BME280;72152;65.012;25.464;2024-03-25T14:36:58;100421.37;;;-0.39;54.38
82512;BME280;72152;65.012;25.464;2024-03-25T14:40:17;100423.11;;;-0.48;54.60
82512;BME280;72152;65.012;25.464;2024-03-25T14:43:23;100429.43;;;-0.55;54.82
82512;BME280;72152;65.012;25.464;2024-03-25T14:46:28;100430.02;;;-0.63;55.11
82512;BME280;72152;65.012;25.464;2024-03-25T14:49:34;100436.98;;;-0.70;55.37
82512;BME280;72152;65.012;25.464;2024-03-25T14:52:46;100435.80;;;-0.89;55.22
82512;BME280;72152;65.012;25.464;2024-03-25T14:55:55;100432.73;;;-1.10;55.51
82512;BME280;72152;65.012;25.464;2024-03-25T14:59:00;100438.08;;;-1.27;55.60
82512;BME280;72152;65.012;25.464;2024-03-25T15:02:09;100435.93;;;-1.34;55.95
82512;BME280;72152;65.012;25.464;2024-03-25T15:05:27;100438.36;;;-1.38;55.97
82512;BME280;72152;65.012;25.464;2024-03-25T15:08:39;100442.09;;;-1.44;56.44
82512;BME280;72152;65.012;25.464;2024-03-25T15:11:35;100441.37;;;-1.49;56.40
82512;BME280;72152;65.012;25.464;2024-03-25T15:14:45;100442.52;;;-1.59;56.75
82512;BME280;72152;65.012;25.464;2024-03-25T15:17:50;100450.70;;;-1.70;56.88
82512;BME280;72152;65.012;25.464;2024-03-25T15:21:05;100455.48;;;-1.84;57.15
82512;BME280;72152;65.012;25.464;2024-03-25T15:24:05;100450.98;;;-2.01;57.37
82512;BME280;72152;65.012;25.464;2024-03-25T15:27:13;100461.44;;;-2.14;57.78
82512;BME280;72152;65.012;25.464;2024-03-25T15:30:25;100460.67;;;-2.31;58.29
82512;BME280;72152;65.012;25.464;2024-03-25T15:33:36;100462.65;;;-2.45;58.89
82512;BME280;72152;65.012;25.464;2024-03-25T15:36:50;100466.51;;;-2.47;59.17
82512;BME280;72152;65.012;25.464;2024-03-25T15:39:53;100472.30;;;-2.49;59.22
82512;BME280;72152;65.012;25.464;2024-03-25T15:43:01;100473.14;;;-2.49;59.42
82512;BME280;72152;65.012;25.464;2024-03-25T15:46:12;100475.73;;;-2.56;59.36
82512;BME280;72152;65.012;25.464;2024-03-25T15:49:21;100479.61;;;-2.70;59.40
82512;BME280;72152;65.012;25.464;2024-03-25T15:52:16;100478.23;;;-2.81;59.76
82512;BME280;72152;65.012;25.464;2024-03-25T15:55:27;100481.64;;;-2.82;60.00
82512;BME280;72152;65.012;25.464;2024-03-25T15:58:39;100481.17;;;-2.81;60.28
82512;BME280;72152;65.012;25.464;2024-03-25T16:01:42;100481.45;;;-2.82;60.13
82512;BME280;72152;65.012;25.464;2024-03-25T16:04:50;100482.30;;;-2.86;60.21
82512;BME280;72152;65.012;25.464;2024-03-25T16:07:58;100480.21;;;-2.91;60.22
82512;BME280;72152;65.012;25.464;2024-03-25T16:11:03;100477.80;;;-2.90;60.22
82512;BME280;72152;65.012;25.464;2024-03-25T16:14:15;100480.38;;;-2.87;60.38
82512;BME280;72152;65.012;25.464;2024-03-25T16:17:23;100487.36;;;-2.81;60.51
82512;BME280;72152;65.012;25.464;2024-03-25T16:20:40;100485.06;;;-2.75;60.54
82512;BME280;72152;65.012;25.464;2024-03-25T16:23:46;100486.51;;;-2.73;60.40